Hepzibah, West Virginia
Current Conditions -  °F | °C
As of 8:53 PM on Sunday 25 Jan 2015 (Local Time) from KCKB Reporting Station
Haze Haze  
Wind Chill: 32°   Ceiling: 7000
Heat Index: 36°   Visibility: 2mi
Dew Point: 35°   Wind: 5mph
Humidity: 97%   Direction: 20°NNE
Pressure: 29.74"   Gusts: NA
Location:  39.33°N, 80.34°W
Report Text: KCKB 260153Z 02004KT 2SM BR OVC070 02/02 A2974 RMK AO2 SLP076 T00220017
Loading
Personal Weather Stations






























Interactive Weather Map New forecast layout! Learn more

10-Day Weather Forecast

Advertisements
Track Severe Weather on mobile